createdAt,value
2019-02-28T00:00:26.553Z,10.01
2019-02-28T00:02:53.868Z,9.87
2019-02-28T00:05:20.419Z,9.81
2019-02-28T00:07:46.235Z,9.81
2019-02-28T00:10:12.156Z,9.82
2019-02-28T00:12:38.101Z,9.85
2019-02-28T00:15:06.530Z,9.79
2019-02-28T00:17:32.365Z,9.74
2019-02-28T00:19:58.724Z,9.68
2019-02-28T00:22:24.754Z,9.69
2019-02-28T00:24:50.628Z,9.70
2019-02-28T00:27:20.924Z,9.69
2019-02-28T00:29:44.586Z,9.74
2019-02-28T00:32:10.660Z,9.60
2019-02-28T00:34:39.312Z,9.65
2019-02-28T00:37:04.398Z,9.54
2019-02-28T00:39:31.395Z,9.56
2019-02-28T00:41:58.017Z,9.58
2019-02-28T00:44:23.983Z,9.59
2019-02-28T00:46:49.919Z,9.53
2019-02-28T00:49:15.778Z,9.58
2019-02-28T00:51:45.212Z,9.59
2019-02-28T00:54:11.092Z,9.56
2019-02-28T00:56:37.036Z,9.50
2019-02-28T00:59:03.121Z,9.53
2019-02-28T01:01:30.606Z,9.48
2019-02-28T01:03:58.035Z,9.46
2019-02-28T01:06:24.496Z,9.48
2019-02-28T01:08:52.966Z,9.45
2019-02-28T01:11:18.305Z,9.47
2019-02-28T01:13:44.354Z,9.29
2019-02-28T01:16:10.213Z,9.26
2019-02-28T01:18:36.079Z,9.20
2019-02-28T01:21:02.131Z,9.18
2019-02-28T01:23:29.408Z,9.29
2019-02-28T01:25:55.873Z,9.20
2019-02-28T01:28:23.475Z,9.21
2019-02-28T01:30:49.470Z,9.17
2019-02-28T01:33:15.376Z,9.06
2019-02-28T01:35:41.508Z,8.99
2019-02-28T01:38:07.563Z,8.98
2019-02-28T01:40:35.195Z,8.98
2019-02-28T01:43:01.408Z,8.93
2019-02-28T01:45:27.243Z,8.89
2019-02-28T01:47:53.195Z,8.84
2019-02-28T01:50:19.145Z,8.72
2019-02-28T01:52:46.205Z,8.73
2019-02-28T01:55:12.276Z,8.68
2019-02-28T01:57:42.341Z,8.68
2019-02-28T02:00:14.981Z,8.48
2019-02-28T02:02:40.955Z,8.72
2019-02-28T02:05:07.125Z,8.73
2019-02-28T02:07:34.377Z,8.60
2019-02-28T02:10:00.804Z,8.68
2019-02-28T02:12:31.333Z,8.59
2019-02-28T02:14:54.532Z,8.51
2019-02-28T02:17:20.380Z,8.60
2019-02-28T02:19:49.362Z,8.54
2019-02-28T02:22:14.263Z,8.49
2019-02-28T02:24:40.202Z,8.43
2019-02-28T02:27:06.228Z,8.37
2019-02-28T02:29:32.397Z,8.33
2019-02-28T02:32:02.293Z,8.37
2019-02-28T02:34:28.290Z,8.40
2019-02-28T02:36:55.499Z,8.32
2019-02-28T02:39:21.449Z,8.22
2019-02-28T02:41:47.399Z,8.34
2019-02-28T02:44:13.252Z,8.43
2019-02-28T02:46:39.245Z,8.19
2019-02-28T02:49:05.119Z,8.29
2019-02-28T02:51:30.973Z,8.26
2019-02-28T02:53:56.891Z,8.29
2019-02-28T02:56:22.745Z,8.18
2019-02-28T02:58:48.737Z,8.14
2019-02-28T03:01:14.607Z,8.12
2019-02-28T03:03:44.120Z,8.15
2019-02-28T03:06:12.223Z,8.13
2019-02-28T03:08:37.325Z,8.00
2019-02-28T03:11:03.661Z,7.95
2019-02-28T03:13:29.607Z,7.90
2019-02-28T03:15:59.284Z,7.92
2019-02-28T03:18:23.446Z,8.01
2019-02-28T03:20:49.302Z,7.94
2019-02-28T03:23:15.184Z,7.77
2019-02-28T03:25:41.126Z,7.71
2019-02-28T03:28:06.950Z,7.74
2019-02-28T03:30:33.834Z,7.78
2019-02-28T03:33:00.059Z,7.70
2019-02-28T03:35:25.876Z,7.57
2019-02-28T03:37:51.859Z,7.68
2019-02-28T03:40:17.833Z,7.53
2019-02-28T03:42:43.719Z,7.59
2019-02-28T03:47:58.945Z,7.46
2019-02-28T03:50:25.584Z,7.38
2019-02-28T03:52:51.571Z,7.43
2019-02-28T03:55:17.683Z,7.44
2019-02-28T03:57:43.638Z,7.53
2019-02-28T04:00:15.912Z,7.50
2019-02-28T04:02:41.946Z,7.42
2019-02-28T04:05:08.376Z,7.44
2019-02-28T04:07:34.726Z,7.51
2019-02-28T04:10:00.849Z,7.51
2019-02-28T04:12:26.761Z,7.52
2019-02-28T04:14:52.613Z,7.62
2019-02-28T04:17:18.551Z,7.40
2019-02-28T04:19:44.562Z,7.46
2019-02-28T04:22:10.500Z,7.26
2019-02-28T04:24:36.333Z,7.27
2019-02-28T04:27:06.281Z,7.18
2019-02-28T04:29:31.340Z,7.08
2019-02-28T04:31:58.170Z,7.15
2019-02-28T04:34:24.105Z,7.21
2019-02-28T04:36:50.030Z,7.39
2019-02-28T04:39:15.915Z,7.47
2019-02-28T04:41:41.855Z,7.37
2019-02-28T04:44:07.745Z,7.32
2019-02-28T04:46:33.761Z,7.25
2019-02-28T04:48:59.718Z,7.19
2019-02-28T04:51:25.688Z,7.22
2019-02-28T04:53:53.140Z,7.19
2019-02-28T04:56:19.519Z,7.15
2019-02-28T04:58:45.423Z,7.15
2019-02-28T05:01:12.329Z,7.16
2019-02-28T05:03:39.132Z,7.15
2019-02-28T05:06:05.086Z,7.08
2019-02-28T05:08:31.139Z,7.03
2019-02-28T05:10:56.994Z,6.91
2019-02-28T05:13:22.837Z,6.88
2019-02-28T05:15:48.816Z,6.86
2019-02-28T05:18:14.642Z,6.89
2019-02-28T05:20:44.668Z,6.88
2019-02-28T05:23:08.438Z,6.77
2019-02-28T05:25:36.193Z,6.73
2019-02-28T05:28:02.238Z,6.67
2019-02-28T05:30:28.240Z,6.67
2019-02-28T05:32:54.089Z,6.77
2019-02-28T05:35:25.527Z,6.69
2019-02-28T05:37:48.551Z,6.63
2019-02-28T05:40:15.934Z,6.66
2019-02-28T05:42:42.038Z,6.69
2019-02-28T05:45:11.398Z,6.69
2019-02-28T05:47:45.813Z,6.64
2019-02-28T05:50:15.455Z,6.70
2019-02-28T05:52:37.707Z,6.70
2019-02-28T05:55:08.381Z,6.61
2019-02-28T05:57:34.340Z,6.56
2019-02-28T06:00:01.883Z,6.52
2019-02-28T06:02:28.486Z,6.47
2019-02-28T06:04:54.345Z,6.41
2019-02-28T06:07:20.310Z,6.45
2019-02-28T06:09:48.666Z,6.50
2019-02-28T06:12:14.613Z,6.48
2019-02-28T06:14:40.493Z,6.60
2019-02-28T06:17:06.326Z,6.58
2019-02-28T06:19:32.274Z,6.53
2019-02-28T06:21:59.429Z,6.47
2019-02-28T06:24:25.941Z,6.63
2019-02-28T06:26:51.754Z,6.69
2019-02-28T06:29:17.699Z,6.70
2019-02-28T06:31:45.430Z,6.65
2019-02-28T06:34:11.471Z,6.68
2019-02-28T06:36:37.333Z,6.55
2019-02-28T06:39:04.915Z,6.50
2019-02-28T06:41:30.812Z,6.71
2019-02-28T06:43:56.783Z,6.78
2019-02-28T06:46:22.649Z,6.78
2019-02-28T06:48:48.607Z,6.78
2019-02-28T06:51:16.818Z,6.78
2019-02-28T06:53:42.337Z,6.87
2019-02-28T06:56:08.222Z,7.00
2019-02-28T06:58:34.165Z,7.06
2019-02-28T07:01:00.247Z,7.00
2019-02-28T07:03:26.106Z,7.10
2019-02-28T07:05:51.928Z,7.22
2019-02-28T07:08:20.741Z,7.28
2019-02-28T07:10:48.378Z,7.32
2019-02-28T07:13:13.515Z,7.43
2019-02-28T07:15:39.440Z,7.42
2019-02-28T07:18:05.285Z,7.57
2019-02-28T07:20:31.254Z,7.72
2019-02-28T07:22:57.214Z,7.89
2019-02-28T07:25:23.282Z,7.89
2019-02-28T07:27:49.287Z,7.85
2019-02-28T07:30:19.227Z,8.00
2019-02-28T07:32:45.584Z,8.07
2019-02-28T07:35:11.848Z,8.15
2019-02-28T07:37:37.801Z,8.13
2019-02-28T07:40:15.509Z,8.29
2019-02-28T07:42:38.604Z,8.40
2019-02-28T07:45:06.643Z,8.36
2019-02-28T07:47:32.512Z,8.37
2019-02-28T07:49:58.447Z,8.47
2019-02-28T07:52:24.263Z,8.56
2019-02-28T07:54:51.841Z,8.79
2019-02-28T07:57:18.068Z,9.03
2019-02-28T07:59:44.050Z,9.14
2019-02-28T08:02:09.876Z,9.36
2019-02-28T08:04:35.849Z,9.40
2019-02-28T08:07:01.805Z,9.60
2019-02-28T08:09:28.146Z,9.71
2019-02-28T08:11:55.504Z,9.73
2019-02-28T08:14:21.874Z,9.89
2019-02-28T08:16:47.756Z,9.97
2019-02-28T08:19:13.737Z,10.10
2019-02-28T08:21:43.958Z,10.22
2019-02-28T08:24:07.449Z,10.35
2019-02-28T08:26:33.426Z,10.55
2019-02-28T08:28:59.479Z,10.68
2019-02-28T08:31:28.314Z,10.82
2019-02-28T08:33:53.354Z,10.93
2019-02-28T08:36:19.536Z,11.06
2019-02-28T08:38:45.645Z,11.12
2019-02-28T08:41:11.488Z,11.14
2019-02-28T08:43:37.570Z,11.21
2019-02-28T08:46:09.625Z,11.22
2019-02-28T08:48:32.496Z,11.37
2019-02-28T08:50:59.336Z,11.39
2019-02-28T08:53:25.221Z,11.32
2019-02-28T08:55:51.175Z,11.55
2019-02-28T08:58:20.993Z,11.60
2019-02-28T09:00:47.022Z,11.57
2019-02-28T09:03:12.893Z,11.60
2019-02-28T09:05:38.997Z,11.75
2019-02-28T09:08:05.032Z,11.83
2019-02-28T09:10:30.870Z,11.95
2019-02-28T09:12:56.852Z,12.13
2019-02-28T09:15:22.983Z,12.15
2019-02-28T09:17:48.931Z,12.20
2019-02-28T09:20:15.630Z,12.20
2019-02-28T09:22:41.757Z,12.13
2019-02-28T09:25:21.977Z,12.37
2019-02-28T09:27:48.342Z,12.30
2019-02-28T09:30:17.460Z,12.34
2019-02-28T09:32:45.266Z,12.54
2019-02-28T09:35:14.420Z,12.47
2019-02-28T09:37:39.214Z,12.38
2019-02-28T09:40:11.220Z,12.48
2019-02-28T09:42:37.256Z,12.44
2019-02-28T09:45:09.717Z,12.80
2019-02-28T09:47:35.609Z,12.72
2019-02-28T09:50:01.423Z,12.66
2019-02-28T09:52:27.454Z,12.89
2019-02-28T09:54:56.313Z,12.82
2019-02-28T09:57:22.658Z,12.92
2019-02-28T09:59:48.646Z,12.99
2019-02-28T10:02:14.530Z,12.93
2019-02-28T10:04:40.379Z,13.15
2019-02-28T10:07:06.356Z,13.54
2019-02-28T10:09:32.328Z,13.21
2019-02-28T10:11:58.187Z,13.47
2019-02-28T10:14:25.734Z,13.64
2019-02-28T10:16:52.660Z,13.33
2019-02-28T10:19:19.213Z,13.62
2019-02-28T10:21:51.635Z,13.86
2019-02-28T10:24:12.817Z,14.12
2019-02-28T10:26:38.860Z,14.39
2019-02-28T10:29:07.443Z,14.24
2019-02-28T10:31:36.422Z,14.15
2019-02-28T10:34:00.315Z,14.05
2019-02-28T10:36:26.256Z,14.08
2019-02-28T10:38:52.260Z,13.94
2019-02-28T10:41:18.086Z,14.11
2019-02-28T10:43:49.913Z,14.23
2019-02-28T10:46:16.573Z,14.44
2019-02-28T10:48:50.807Z,14.41
2019-02-28T10:51:13.941Z,14.23
2019-02-28T10:53:39.317Z,14.14
2019-02-28T10:56:06.217Z,14.50
2019-02-28T10:58:32.191Z,14.70
2019-02-28T11:00:58.237Z,14.50
2019-02-28T11:03:24.307Z,14.65
2019-02-28T11:05:53.371Z,14.94
2019-02-28T11:08:19.256Z,14.80
2019-02-28T11:10:45.667Z,14.94
2019-02-28T11:13:17.865Z,15.05
2019-02-28T11:15:47.865Z,15.18
2019-02-28T11:18:12.286Z,15.03
2019-02-28T11:20:39.129Z,14.96
2019-02-28T11:23:05.334Z,15.20
2019-02-28T11:25:34.667Z,15.33
2019-02-28T11:27:59.340Z,15.27
2019-02-28T11:30:31.930Z,15.32
2019-02-28T11:33:02.996Z,15.22
2019-02-28T11:35:26.819Z,15.30
2019-02-28T11:37:52.939Z,15.31
2019-02-28T11:40:21.503Z,15.35
2019-02-28T11:42:47.441Z,15.45
2019-02-28T11:45:18.552Z,15.64
2019-02-28T11:47:47.492Z,15.61
2019-02-28T11:50:13.672Z,15.70
2019-02-28T11:52:40.049Z,16.04
2019-02-28T11:55:11.494Z,16.14
2019-02-28T11:57:41.336Z,15.76
2019-02-28T12:00:21.981Z,16.12
2019-02-28T12:02:59.891Z,16.18
2019-02-28T12:05:21.553Z,16.22
2019-02-28T12:07:47.620Z,16.08
2019-02-28T12:10:13.739Z,16.04
2019-02-28T12:12:41.576Z,16.74
2019-02-28T12:15:10.724Z,16.88
2019-02-28T12:17:36.743Z,16.67
2019-02-28T12:20:05.711Z,16.76
2019-02-28T12:22:31.725Z,16.67
2019-02-28T12:24:57.627Z,16.96
2019-02-28T12:27:24.440Z,16.79
2019-02-28T12:29:51.384Z,16.78
2019-02-28T12:32:17.312Z,17.26
2019-02-28T12:34:43.235Z,17.38
2019-02-28T12:37:09.181Z,17.38
2019-02-28T12:39:36.322Z,17.92
2019-02-28T12:42:03.165Z,19.77
2019-02-28T12:44:29.228Z,22.07
2019-02-28T12:46:55.047Z,24.66
2019-02-28T12:49:22.392Z,25.65
2019-02-28T12:51:49.223Z,29.28
2019-02-28T12:54:15.145Z,25.34
2019-02-28T12:56:41.308Z,26.00
2019-02-28T12:59:09.977Z,28.43
2019-02-28T13:01:35.281Z,26.04
2019-02-28T13:04:01.397Z,28.10
2019-02-28T13:06:27.368Z,26.87
2019-02-28T13:08:53.545Z,27.08
2019-02-28T13:11:19.440Z,26.82
2019-02-28T13:13:45.348Z,27.41
2019-02-28T13:16:11.222Z,29.80
2019-02-28T13:18:39.665Z,27.17
2019-02-28T13:21:06.269Z,27.15
2019-02-28T13:23:34.025Z,26.35
2019-02-28T13:26:00.275Z,28.80
2019-02-28T13:28:26.424Z,25.89
2019-02-28T13:30:52.707Z,25.35
2019-02-28T13:33:18.629Z,24.86
2019-02-28T13:35:47.161Z,21.72
2019-02-28T13:38:17.427Z,23.99
2019-02-28T13:40:40.777Z,27.75
2019-02-28T13:43:08.492Z,25.29
2019-02-28T13:45:34.551Z,25.81
2019-02-28T13:48:00.515Z,30.06
2019-02-28T13:50:28.059Z,26.80
2019-02-28T13:52:54.137Z,26.02
2019-02-28T13:55:20.240Z,26.38
2019-02-28T13:57:46.959Z,26.64
2019-02-28T14:00:28.425Z,26.44
2019-02-28T14:03:00.032Z,27.69
2019-02-28T14:05:26.087Z,26.28
2019-02-28T14:07:52.147Z,24.09
2019-02-28T14:10:18.879Z,25.39
2019-02-28T14:12:45.034Z,25.68
2019-02-28T14:15:17.746Z,25.87
2019-02-28T14:17:43.690Z,22.99
2019-02-28T14:20:10.442Z,26.44
2019-02-28T14:22:36.601Z,24.61
2019-02-28T14:25:06.096Z,24.58
2019-02-28T14:27:31.481Z,26.43
2019-02-28T14:29:57.532Z,26.37
2019-02-28T14:32:23.421Z,23.00
2019-02-28T14:34:49.336Z,22.97
2019-02-28T14:37:16.854Z,25.41
2019-02-28T14:39:43.601Z,30.04
2019-02-28T14:42:09.724Z,24.68
2019-02-28T14:44:35.566Z,25.97
2019-02-28T14:47:01.778Z,26.78
2019-02-28T14:49:27.700Z,26.14
2019-02-28T14:51:53.560Z,23.67
2019-02-28T14:54:21.816Z,23.05
2019-02-28T14:56:47.123Z,25.76
2019-02-28T14:59:13.052Z,23.57
2019-02-28T15:01:39.131Z,24.14
2019-02-28T15:04:07.783Z,23.28
2019-02-28T15:06:32.799Z,24.95
2019-02-28T15:09:05.823Z,23.61
2019-02-28T15:11:31.959Z,24.70
2019-02-28T15:13:57.792Z,25.40
2019-02-28T15:16:26.572Z,25.23
2019-02-28T15:18:51.505Z,25.88
2019-02-28T15:21:17.448Z,24.11
2019-02-28T15:23:43.301Z,22.80
2019-02-28T15:26:09.217Z,25.33
2019-02-28T15:28:35.301Z,22.84
2019-02-28T15:31:01.243Z,24.22
2019-02-28T15:33:27.505Z,25.24
2019-02-28T15:35:55.020Z,24.94
2019-02-28T15:38:20.840Z,23.02
2019-02-28T15:40:46.881Z,19.87
2019-02-28T15:43:17.157Z,19.64
2019-02-28T15:45:40.906Z,19.44
2019-02-28T15:48:06.855Z,18.42
2019-02-28T15:50:32.819Z,18.53
2019-02-28T15:52:58.928Z,18.58
2019-02-28T15:55:25.357Z,18.46
2019-02-28T15:57:51.591Z,18.13
2019-02-28T16:00:22.107Z,18.25
2019-02-28T16:02:48.974Z,18.12
2019-02-28T16:05:15.242Z,17.91
2019-02-28T16:07:41.330Z,17.74
2019-02-28T16:10:11.061Z,17.78
2019-02-28T16:12:37.000Z,17.84
2019-02-28T16:15:08.737Z,17.62
2019-02-28T16:17:36.649Z,17.46
2019-02-28T16:20:04.451Z,17.41
2019-02-28T16:22:30.436Z,17.33
2019-02-28T16:24:56.618Z,17.21
2019-02-28T16:27:22.668Z,17.20
2019-02-28T16:29:48.768Z,17.04
2019-02-28T16:32:15.412Z,17.01
2019-02-28T16:34:42.240Z,16.89
2019-02-28T16:37:09.234Z,16.81
2019-02-28T16:39:35.061Z,16.71
2019-02-28T16:42:01.082Z,16.69
2019-02-28T16:44:27.603Z,16.61
2019-02-28T16:46:56.013Z,16.49
2019-02-28T16:49:22.053Z,16.47
2019-02-28T16:51:48.120Z,16.20
2019-02-28T16:54:14.214Z,16.07
2019-02-28T16:56:40.045Z,15.83
2019-02-28T16:59:05.896Z,15.77
2019-02-28T17:01:31.757Z,15.60
2019-02-28T17:03:57.705Z,15.27
2019-02-28T17:06:23.895Z,15.11
2019-02-28T17:08:54.544Z,15.12
2019-02-28T17:11:19.865Z,15.11
2019-02-28T17:13:47.844Z,14.97
2019-02-28T17:16:15.853Z,15.10
2019-02-28T17:18:42.096Z,14.81
2019-02-28T17:21:08.051Z,14.62
2019-02-28T17:23:36.826Z,14.75
2019-02-28T17:26:01.886Z,14.38
2019-02-28T17:28:38.638Z,14.38
2019-02-28T17:31:23.225Z,14.11
2019-02-28T17:33:52.118Z,13.98
2019-02-28T17:36:17.931Z,13.97
2019-02-28T17:38:44.012Z,14.06
2019-02-28T17:41:11.135Z,13.88
2019-02-28T17:43:37.374Z,14.04
2019-02-28T17:46:03.328Z,13.96
2019-02-28T17:48:59.123Z,13.83
2019-02-28T17:51:28.807Z,13.70
2019-02-28T17:54:01.267Z,13.57
2019-02-28T17:56:55.169Z,13.46
2019-02-28T17:59:49.432Z,13.33
2019-02-28T18:02:34.477Z,13.20
2019-02-28T18:05:29.923Z,13.09
2019-02-28T18:07:53.885Z,12.98
2019-02-28T18:10:32.837Z,12.85
2019-02-28T18:13:19.977Z,12.86
2019-02-28T18:16:05.500Z,12.69
2019-02-28T18:18:59.282Z,13.01
2019-02-28T18:21:31.752Z,12.92
2019-02-28T18:24:30.090Z,12.69
2019-02-28T18:27:28.755Z,12.50
2019-02-28T18:30:18.089Z,12.61
2019-02-28T18:32:43.939Z,12.59
2019-02-28T18:35:09.879Z,12.57
2019-02-28T18:37:35.846Z,12.33
2019-02-28T18:40:03.769Z,12.45
2019-02-28T18:42:29.766Z,12.42
2019-02-28T18:44:55.600Z,12.34
2019-02-28T18:47:21.560Z,12.16
2019-02-28T18:49:47.407Z,12.20
2019-02-28T18:52:13.283Z,12.20
2019-02-28T18:54:39.413Z,12.00
2019-02-28T18:57:05.397Z,12.11
2019-02-28T18:59:31.393Z,12.14
2019-02-28T19:01:57.328Z,12.12
2019-02-28T19:04:23.210Z,12.10
2019-02-28T19:06:49.060Z,12.30
2019-02-28T19:09:17.884Z,12.21
2019-02-28T19:11:43.771Z,12.07
2019-02-28T19:14:13.605Z,11.98
2019-02-28T19:16:39.452Z,11.96
2019-02-28T19:19:05.428Z,11.92
2019-02-28T19:21:31.286Z,11.82
2019-02-28T19:23:57.240Z,11.70
2019-02-28T19:26:23.219Z,11.60
2019-02-28T19:28:49.057Z,11.31
2019-02-28T19:31:15.004Z,11.65
2019-02-28T19:33:40.953Z,11.72
2019-02-28T19:36:06.935Z,11.60
2019-02-28T19:38:32.875Z,11.62
2019-02-28T19:40:58.709Z,11.55
2019-02-28T19:43:24.690Z,11.16
2019-02-28T19:45:53.699Z,11.06
2019-02-28T19:48:19.548Z,11.12
2019-02-28T19:50:45.581Z,11.08
2019-02-28T19:53:11.501Z,11.03
2019-02-28T19:55:37.364Z,11.02
2019-02-28T19:58:03.609Z,11.06
2019-02-28T20:00:29.725Z,10.98
2019-02-28T20:02:55.585Z,11.01
2019-02-28T20:05:21.665Z,10.95
2019-02-28T20:07:47.861Z,10.94
2019-02-28T20:10:15.376Z,10.89
2019-02-28T20:12:41.413Z,10.82
2019-02-28T20:15:10.671Z,10.80
2019-02-28T20:17:36.991Z,10.68
2019-02-28T20:20:07.257Z,10.58
2019-02-28T20:22:33.203Z,10.65
2019-02-28T20:24:59.198Z,10.58
2019-02-28T20:27:25.367Z,10.52
2019-02-28T20:29:55.034Z,10.55
2019-02-28T20:32:19.354Z,10.41
2019-02-28T20:34:45.524Z,10.34
2019-02-28T20:37:11.502Z,10.27
2019-02-28T20:39:37.737Z,10.41
2019-02-28T20:42:03.930Z,10.30
2019-02-28T20:44:29.848Z,10.16
2019-02-28T20:46:55.853Z,10.20
2019-02-28T20:49:21.945Z,10.09
2019-02-28T20:51:54.772Z,10.06
2019-02-28T20:54:15.703Z,9.99
2019-02-28T20:56:44.617Z,9.86
2019-02-28T20:59:10.684Z,9.87
2019-02-28T21:01:36.631Z,9.77
2019-02-28T21:04:02.674Z,9.88
2019-02-28T21:06:28.736Z,9.69
2019-02-28T21:08:54.872Z,9.64
2019-02-28T21:11:20.932Z,9.71
2019-02-28T21:13:46.998Z,9.57
2019-02-28T21:16:13.119Z,9.49
2019-02-28T21:18:39.213Z,9.83
2019-02-28T21:21:05.286Z,9.88
2019-02-28T21:23:31.287Z,9.89
2019-02-28T21:25:57.486Z,9.80
2019-02-28T21:28:23.325Z,9.80
2019-02-28T21:30:49.409Z,9.68
2019-02-28T21:33:15.396Z,9.71
2019-02-28T21:35:41.608Z,9.74
2019-02-28T21:38:07.683Z,9.66
2019-02-28T21:40:34.335Z,9.65
2019-02-28T21:43:00.326Z,9.63
2019-02-28T21:45:27.232Z,9.60
2019-02-28T21:47:53.602Z,9.57
2019-02-28T21:50:21.193Z,9.48
2019-02-28T21:52:48.021Z,9.47
2019-02-28T21:55:17.244Z,9.45
2019-02-28T21:57:43.260Z,9.46
2019-02-28T22:00:28.128Z,9.43
2019-02-28T22:02:54.102Z,9.37
2019-02-28T22:05:20.251Z,9.34
2019-02-28T22:07:46.421Z,9.29
2019-02-28T22:10:14.192Z,9.26
2019-02-28T22:12:40.331Z,9.23
2019-02-28T22:15:12.536Z,9.23
2019-02-28T22:17:38.659Z,9.17
2019-02-28T22:20:06.578Z,9.18
2019-02-28T22:22:32.947Z,9.23
2019-02-28T22:24:59.247Z,9.19
2019-02-28T22:27:25.129Z,9.10
2019-02-28T22:29:51.105Z,9.13
2019-02-28T22:32:24.380Z,9.07
2019-02-28T22:34:48.723Z,8.80
2019-02-28T22:37:14.694Z,8.68
2019-02-28T22:39:40.782Z,8.72
2019-02-28T22:42:06.814Z,8.78
2019-02-28T22:44:32.668Z,8.74
2019-02-28T22:46:58.508Z,8.87
2019-02-28T22:49:24.466Z,8.93
2019-02-28T22:51:50.461Z,8.88
2019-02-28T22:54:16.481Z,8.85
2019-02-28T22:56:42.568Z,8.90
2019-02-28T22:59:08.445Z,8.78
2019-02-28T23:01:35.132Z,8.82
2019-02-28T23:04:01.050Z,8.94
2019-02-28T23:06:26.917Z,8.99
2019-02-28T23:08:52.879Z,9.02
2019-02-28T23:11:18.895Z,9.01
2019-02-28T23:13:44.747Z,8.81
2019-02-28T23:16:10.830Z,8.76
2019-02-28T23:18:36.702Z,8.75
2019-02-28T23:21:03.058Z,8.69
2019-02-28T23:23:29.184Z,8.51
2019-02-28T23:26:07.873Z,8.63
2019-02-28T23:28:36.897Z,8.72
2019-02-28T23:31:06.565Z,8.70
2019-02-28T23:33:32.419Z,8.55
2019-02-28T23:35:58.375Z,8.54
2019-02-28T23:38:24.362Z,8.65
2019-02-28T23:40:50.223Z,8.73
2019-02-28T23:43:16.493Z,8.82
2019-02-28T23:45:42.558Z,8.77
2019-02-28T23:48:08.845Z,8.59
2019-02-28T23:50:34.864Z,8.59
2019-02-28T23:53:00.739Z,8.53
2019-02-28T23:55:26.934Z,8.35
2019-02-28T23:57:52.771Z,8.25
